sensor_id;sensor_type;location;lat;lon;timestamp;P1;durP1;ratioP1;P2;durP2;ratioP2
46931;SDS011;32670;51.464;11.964;2023-06-22T00:01:10;12.50;;;6.50;;
46931;SDS011;32670;51.464;11.964;2023-06-22T00:03:35;6.53;;;6.03;;
46931;SDS011;32670;51.464;11.964;2023-06-22T00:06:01;6.60;;;6.03;;
46931;SDS011;32670;51.464;11.964;2023-06-22T00:08:26;8.10;;;6.43;;
46931;SDS011;32670;51.464;11.964;2023-06-22T00:10:51;6.50;;;6.00;;
46931;SDS011;32670;51.464;11.964;2023-06-22T00:13:17;6.83;;;6.33;;
46931;SDS011;32670;51.464;11.964;2023-06-22T00:15:43;7.17;;;6.47;;
46931;SDS011;32670;51.464;11.964;2023-06-22T00:18:09;6.70;;;6.10;;
46931;SDS011;32670;51.464;11.964;2023-06-22T00:20:35;6.50;;;6.00;;
46931;SDS011;32670;51.464;11.964;2023-06-22T00:23:04;7.30;;;6.60;;
46931;SDS011;32670;51.464;11.964;2023-06-22T00:25:37;6.97;;;6.40;;
46931;SDS011;32670;51.464;11.964;2023-06-22T00:28:04;7.57;;;6.87;;
46931;SDS011;32670;51.464;11.964;2023-06-22T00:30:31;7.33;;;6.43;;
46931;SDS011;32670;51.464;11.964;2023-06-22T00:32:57;6.97;;;6.47;;
46931;SDS011;32670;51.464;11.964;2023-06-22T00:35:23;6.93;;;6.43;;
46931;SDS011;32670;51.464;11.964;2023-06-22T00:37:53;7.00;;;6.30;;
46931;SDS011;32670;51.464;11.964;2023-06-22T00:40:25;7.30;;;6.60;;
46931;SDS011;32670;51.464;11.964;2023-06-22T00:42:51;7.00;;;6.43;;
46931;SDS011;32670;51.464;11.964;2023-06-22T00:45:16;7.50;;;6.90;;
46931;SDS011;32670;51.464;11.964;2023-06-22T00:47:42;8.97;;;6.90;;
46931;SDS011;32670;51.464;11.964;2023-06-22T00:50:08;6.93;;;6.33;;
46931;SDS011;32670;51.464;11.964;2023-06-22T00:52:43;8.30;;;6.60;;
46931;SDS011;32670;51.464;11.964;2023-06-22T00:55:09;7.20;;;6.70;;
46931;SDS011;32670;51.464;11.964;2023-06-22T00:57:34;7.83;;;7.10;;
46931;SDS011;32670;51.464;11.964;2023-06-22T01:00:02;7.17;;;6.47;;
46931;SDS011;32670;51.464;11.964;2023-06-22T01:02:31;7.27;;;6.67;;
46931;SDS011;32670;51.464;11.964;2023-06-22T01:04:57;7.60;;;7.00;;
46931;SDS011;32670;51.464;11.964;2023-06-22T01:07:26;7.93;;;6.53;;
46931;SDS011;32670;51.464;11.964;2023-06-22T01:09:57;6.97;;;6.47;;
46931;SDS011;32670;51.464;11.964;2023-06-22T01:12:37;7.03;;;6.43;;
46931;SDS011;32670;51.464;11.964;2023-06-22T01:15:10;7.53;;;6.93;;
46931;SDS011;32670;51.464;11.964;2023-06-22T01:17:39;7.43;;;6.83;;
46931;SDS011;32670;51.464;11.964;2023-06-22T01:20:07;7.60;;;6.83;;
46931;SDS011;32670;51.464;11.964;2023-06-22T01:22:40;7.80;;;7.10;;
46931;SDS011;32670;51.464;11.964;2023-06-22T01:25:20;7.73;;;7.13;;
46931;SDS011;32670;51.464;11.964;2023-06-22T01:27:58;7.47;;;6.77;;
46931;SDS011;32670;51.464;11.964;2023-06-22T01:30:34;7.40;;;6.70;;
46931;SDS011;32670;51.464;11.964;2023-06-22T01:32:59;7.60;;;6.90;;
46931;SDS011;32670;51.464;11.964;2023-06-22T01:35:28;7.60;;;6.90;;
46931;SDS011;32670;51.464;11.964;2023-06-22T01:37:54;7.53;;;6.93;;
46931;SDS011;32670;51.464;11.964;2023-06-22T01:40:20;7.70;;;7.00;;
46931;SDS011;32670;51.464;11.964;2023-06-22T01:42:46;7.57;;;6.90;;
46931;SDS011;32670;51.464;11.964;2023-06-22T01:45:13;7.60;;;7.00;;
46931;SDS011;32670;51.464;11.964;2023-06-22T01:47:39;7.57;;;6.93;;
46931;SDS011;32670;51.464;11.964;2023-06-22T01:50:05;7.47;;;6.90;;
46931;SDS011;32670;51.464;11.964;2023-06-22T01:52:31;8.03;;;7.23;;
46931;SDS011;32670;51.464;11.964;2023-06-22T01:54:59;7.73;;;7.13;;
46931;SDS011;32670;51.464;11.964;2023-06-22T01:57:24;8.00;;;7.40;;
46931;SDS011;32670;51.464;11.964;2023-06-22T02:02:25;7.70;;;7.10;;
46931;SDS011;32670;51.464;11.964;2023-06-22T02:05:08;7.90;;;7.10;;
46931;SDS011;32670;51.464;11.964;2023-06-22T02:07:39;8.60;;;7.80;;
46931;SDS011;32670;51.464;11.964;2023-06-22T02:10:09;8.47;;;7.70;;
46931;SDS011;32670;51.464;11.964;2023-06-22T02:12:38;7.63;;;7.13;;
46931;SDS011;32670;51.464;11.964;2023-06-22T02:15:04;7.57;;;6.97;;
46931;SDS011;32670;51.464;11.964;2023-06-22T02:17:31;7.17;;;6.67;;
46931;SDS011;32670;51.464;11.964;2023-06-22T02:19:58;7.90;;;7.30;;
46931;SDS011;32670;51.464;11.964;2023-06-22T02:22:23;8.07;;;7.37;;
46931;SDS011;32670;51.464;11.964;2023-06-22T02:24:49;8.10;;;7.40;;
46931;SDS011;32670;51.464;11.964;2023-06-22T02:27:15;8.67;;;7.87;;
46931;SDS011;32670;51.464;11.964;2023-06-22T02:29:40;8.07;;;7.37;;
46931;SDS011;32670;51.464;11.964;2023-06-22T02:32:06;7.83;;;7.23;;
46931;SDS011;32670;51.464;11.964;2023-06-22T02:34:31;8.03;;;7.33;;
46931;SDS011;32670;51.464;11.964;2023-06-22T02:36:58;7.83;;;7.20;;
46931;SDS011;32670;51.464;11.964;2023-06-22T02:39:25;7.80;;;7.20;;
46931;SDS011;32670;51.464;11.964;2023-06-22T02:41:51;8.53;;;7.83;;
46931;SDS011;32670;51.464;11.964;2023-06-22T02:44:18;8.27;;;7.63;;
46931;SDS011;32670;51.464;11.964;2023-06-22T02:46:44;8.17;;;7.47;;
46931;SDS011;32670;51.464;11.964;2023-06-22T02:49:10;8.00;;;7.40;;
46931;SDS011;32670;51.464;11.964;2023-06-22T02:51:38;8.67;;;7.97;;
46931;SDS011;32670;51.464;11.964;2023-06-22T02:54:05;8.43;;;7.53;;
46931;SDS011;32670;51.464;11.964;2023-06-22T02:56:31;8.40;;;7.70;;
46931;SDS011;32670;51.464;11.964;2023-06-22T02:58:56;9.50;;;8.70;;
46931;SDS011;32670;51.464;11.964;2023-06-22T03:01:26;10.57;;;9.77;;
46931;SDS011;32670;51.464;11.964;2023-06-22T03:03:53;10.90;;;10.03;;
46931;SDS011;32670;51.464;11.964;2023-06-22T03:06:18;10.07;;;9.10;;
46931;SDS011;32670;51.464;11.964;2023-06-22T03:08:48;9.53;;;8.63;;
46931;SDS011;32670;51.464;11.964;2023-06-22T03:11:14;9.20;;;8.50;;
46931;SDS011;32670;51.464;11.964;2023-06-22T03:13:39;9.90;;;9.00;;
46931;SDS011;32670;51.464;11.964;2023-06-22T03:16:04;9.67;;;8.77;;
46931;SDS011;32670;51.464;11.964;2023-06-22T03:18:30;8.60;;;7.80;;
46931;SDS011;32670;51.464;11.964;2023-06-22T03:20:55;9.57;;;8.77;;
46931;SDS011;32670;51.464;11.964;2023-06-22T03:23:21;10.47;;;9.43;;
46931;SDS011;32670;51.464;11.964;2023-06-22T03:25:47;8.73;;;8.00;;
46931;SDS011;32670;51.464;11.964;2023-06-22T03:28:12;9.53;;;8.60;;
46931;SDS011;32670;51.464;11.964;2023-06-22T03:30:38;8.87;;;8.17;;
46931;SDS011;32670;51.464;11.964;2023-06-22T03:33:03;11.13;;;8.73;;
46931;SDS011;32670;51.464;11.964;2023-06-22T03:35:28;9.33;;;8.57;;
46931;SDS011;32670;51.464;11.964;2023-06-22T03:37:54;9.33;;;8.43;;
46931;SDS011;32670;51.464;11.964;2023-06-22T03:40:19;9.07;;;8.33;;
46931;SDS011;32670;51.464;11.964;2023-06-22T03:42:45;9.73;;;8.70;;
46931;SDS011;32670;51.464;11.964;2023-06-22T03:45:11;8.90;;;8.20;;
46931;SDS011;32670;51.464;11.964;2023-06-22T03:47:36;8.70;;;7.97;;
46931;SDS011;32670;51.464;11.964;2023-06-22T03:50:02;8.53;;;7.83;;
46931;SDS011;32670;51.464;11.964;2023-06-22T03:52:28;9.33;;;8.53;;
46931;SDS011;32670;51.464;11.964;2023-06-22T03:54:54;9.03;;;8.20;;
46931;SDS011;32670;51.464;11.964;2023-06-22T03:57:20;9.37;;;8.00;;
46931;SDS011;32670;51.464;11.964;2023-06-22T03:59:45;8.73;;;7.97;;
46931;SDS011;32670;51.464;11.964;2023-06-22T04:02:11;9.27;;;8.53;;
46931;SDS011;32670;51.464;11.964;2023-06-22T04:04:37;8.30;;;7.50;;
46931;SDS011;32670;51.464;11.964;2023-06-22T04:07:04;8.67;;;7.77;;
46931;SDS011;32670;51.464;11.964;2023-06-22T04:09:29;8.97;;;8.17;;
46931;SDS011;32670;51.464;11.964;2023-06-22T04:11:55;8.30;;;7.60;;
46931;SDS011;32670;51.464;11.964;2023-06-22T04:14:20;8.27;;;7.57;;
46931;SDS011;32670;51.464;11.964;2023-06-22T04:16:46;8.67;;;7.80;;
46931;SDS011;32670;51.464;11.964;2023-06-22T04:19:11;8.73;;;7.90;;
46931;SDS011;32670;51.464;11.964;2023-06-22T04:21:41;9.00;;;7.97;;
46931;SDS011;32670;51.464;11.964;2023-06-22T04:24:10;8.00;;;7.40;;
46931;SDS011;32670;51.464;11.964;2023-06-22T04:26:36;9.77;;;7.87;;
46931;SDS011;32670;51.464;11.964;2023-06-22T04:29:05;8.70;;;7.93;;
46931;SDS011;32670;51.464;11.964;2023-06-22T04:31:34;8.27;;;7.53;;
46931;SDS011;32670;51.464;11.964;2023-06-22T04:34:03;9.27;;;8.30;;
46931;SDS011;32670;51.464;11.964;2023-06-22T04:36:36;12.20;;;7.53;;
46931;SDS011;32670;51.464;11.964;2023-06-22T04:39:04;8.43;;;7.07;;
46931;SDS011;32670;51.464;11.964;2023-06-22T04:41:30;8.53;;;7.73;;
46931;SDS011;32670;51.464;11.964;2023-06-22T04:44:07;8.70;;;7.90;;
46931;SDS011;32670;51.464;11.964;2023-06-22T04:46:39;8.83;;;7.43;;
46931;SDS011;32670;51.464;11.964;2023-06-22T04:49:06;9.47;;;8.53;;
46931;SDS011;32670;51.464;11.964;2023-06-22T04:51:34;10.20;;;8.80;;
46931;SDS011;32670;51.464;11.964;2023-06-22T04:54:07;9.93;;;8.53;;
46931;SDS011;32670;51.464;11.964;2023-06-22T04:56:33;9.63;;;8.63;;
46931;SDS011;32670;51.464;11.964;2023-06-22T04:58:59;8.77;;;7.90;;
46931;SDS011;32670;51.464;11.964;2023-06-22T05:01:24;9.23;;;8.17;;
46931;SDS011;32670;51.464;11.964;2023-06-22T05:03:50;9.13;;;7.87;;
46931;SDS011;32670;51.464;11.964;2023-06-22T05:06:21;9.03;;;7.97;;
46931;SDS011;32670;51.464;11.964;2023-06-22T05:08:49;9.30;;;8.40;;
46931;SDS011;32670;51.464;11.964;2023-06-22T05:11:16;9.33;;;8.50;;
46931;SDS011;32670;51.464;11.964;2023-06-22T05:13:41;9.80;;;8.00;;
46931;SDS011;32670;51.464;11.964;2023-06-22T05:16:06;9.70;;;8.70;;
46931;SDS011;32670;51.464;11.964;2023-06-22T05:18:32;8.23;;;7.53;;
46931;SDS011;32670;51.464;11.964;2023-06-22T05:20:58;9.23;;;8.33;;
46931;SDS011;32670;51.464;11.964;2023-06-22T05:23:24;11.80;;;8.73;;
46931;SDS011;32670;51.464;11.964;2023-06-22T05:25:50;12.03;;;9.73;;
46931;SDS011;32670;51.464;11.964;2023-06-22T05:28:16;13.13;;;9.03;;
46931;SDS011;32670;51.464;11.964;2023-06-22T05:30:41;9.70;;;8.63;;
46931;SDS011;32670;51.464;11.964;2023-06-22T05:33:07;16.87;;;9.07;;
46931;SDS011;32670;51.464;11.964;2023-06-22T05:35:32;11.57;;;9.10;;
46931;SDS011;32670;51.464;11.964;2023-06-22T05:37:58;10.00;;;9.10;;
46931;SDS011;32670;51.464;11.964;2023-06-22T05:40:23;11.17;;;9.30;;
46931;SDS011;32670;51.464;11.964;2023-06-22T05:42:49;11.90;;;9.47;;
46931;SDS011;32670;51.464;11.964;2023-06-22T05:45:14;10.07;;;9.10;;
46931;SDS011;32670;51.464;11.964;2023-06-22T05:47:40;10.17;;;9.00;;
46931;SDS011;32670;51.464;11.964;2023-06-22T05:50:06;10.17;;;9.03;;
46931;SDS011;32670;51.464;11.964;2023-06-22T05:52:33;13.30;;;8.23;;
46931;SDS011;32670;51.464;11.964;2023-06-22T05:54:59;13.00;;;7.70;;
46931;SDS011;32670;51.464;11.964;2023-06-22T05:57:25;15.27;;;9.03;;
46931;SDS011;32670;51.464;11.964;2023-06-22T05:59:50;12.40;;;9.17;;
46931;SDS011;32670;51.464;11.964;2023-06-22T06:02:16;9.53;;;8.67;;
46931;SDS011;32670;51.464;11.964;2023-06-22T06:04:42;10.77;;;8.83;;
46931;SDS011;32670;51.464;11.964;2023-06-22T06:07:07;10.53;;;9.20;;
46931;SDS011;32670;51.464;11.964;2023-06-22T06:09:33;10.63;;;8.70;;
46931;SDS011;32670;51.464;11.964;2023-06-22T06:11:58;10.60;;;8.60;;
46931;SDS011;32670;51.464;11.964;2023-06-22T06:14:24;8.97;;;8.07;;
46931;SDS011;32670;51.464;11.964;2023-06-22T06:16:49;8.07;;;7.37;;
46931;SDS011;32670;51.464;11.964;2023-06-22T06:19:14;9.40;;;8.03;;
46931;SDS011;32670;51.464;11.964;2023-06-22T06:21:40;9.13;;;8.03;;
46931;SDS011;32670;51.464;11.964;2023-06-22T06:24:06;11.23;;;7.63;;
46931;SDS011;32670;51.464;11.964;2023-06-22T06:26:33;9.33;;;7.23;;
46931;SDS011;32670;51.464;11.964;2023-06-22T06:29:00;8.83;;;8.00;;
46931;SDS011;32670;51.464;11.964;2023-06-22T06:31:27;8.73;;;7.83;;
46931;SDS011;32670;51.464;11.964;2023-06-22T06:33:53;8.10;;;7.30;;
46931;SDS011;32670;51.464;11.964;2023-06-22T06:36:19;9.07;;;8.17;;
46931;SDS011;32670;51.464;11.964;2023-06-22T06:38:44;8.30;;;7.50;;
46931;SDS011;32670;51.464;11.964;2023-06-22T06:41:12;9.10;;;7.13;;
46931;SDS011;32670;51.464;11.964;2023-06-22T06:43:41;8.27;;;7.57;;
46931;SDS011;32670;51.464;11.964;2023-06-22T06:46:08;8.70;;;8.00;;
46931;SDS011;32670;51.464;11.964;2023-06-22T06:48:34;8.97;;;8.13;;
46931;SDS011;32670;51.464;11.964;2023-06-22T06:50:59;8.73;;;7.83;;
46931;SDS011;32670;51.464;11.964;2023-06-22T06:53:24;8.77;;;7.93;;
46931;SDS011;32670;51.464;11.964;2023-06-22T06:55:50;10.50;;;7.93;;
46931;SDS011;32670;51.464;11.964;2023-06-22T06:58:15;8.33;;;7.53;;
46931;SDS011;32670;51.464;11.964;2023-06-22T07:00:41;10.03;;;7.57;;
46931;SDS011;32670;51.464;11.964;2023-06-22T07:03:06;9.37;;;7.93;;
46931;SDS011;32670;51.464;11.964;2023-06-22T07:05:32;17.60;;;7.93;;
46931;SDS011;32670;51.464;11.964;2023-06-22T07:07:57;15.30;;;7.30;;
46931;SDS011;32670;51.464;11.964;2023-06-22T07:10:23;21.53;;;7.57;;
46931;SDS011;32670;51.464;11.964;2023-06-22T07:12:49;24.00;;;8.00;;
46931;SDS011;32670;51.464;11.964;2023-06-22T07:15:14;17.33;;;7.57;;
46931;SDS011;32670;51.464;11.964;2023-06-22T07:17:40;14.13;;;7.63;;
46931;SDS011;32670;51.464;11.964;2023-06-22T07:20:06;12.07;;;7.50;;
46931;SDS011;32670;51.464;11.964;2023-06-22T07:22:37;11.93;;;7.23;;
46931;SDS011;32670;51.464;11.964;2023-06-22T07:25:03;13.53;;;6.93;;
46931;SDS011;32670;51.464;11.964;2023-06-22T07:27:33;9.27;;;6.27;;
46931;SDS011;32670;51.464;11.964;2023-06-22T07:30:02;13.83;;;7.07;;
46931;SDS011;32670;51.464;11.964;2023-06-22T07:32:28;16.83;;;7.40;;
46931;SDS011;32670;51.464;11.964;2023-06-22T07:34:54;15.63;;;6.60;;
46931;SDS011;32670;51.464;11.964;2023-06-22T07:37:19;13.00;;;6.63;;
46931;SDS011;32670;51.464;11.964;2023-06-22T07:39:45;15.83;;;6.70;;
46931;SDS011;32670;51.464;11.964;2023-06-22T07:42:10;7.07;;;6.00;;
46931;SDS011;32670;51.464;11.964;2023-06-22T07:44:36;10.57;;;6.80;;
46931;SDS011;32670;51.464;11.964;2023-06-22T07:47:01;10.83;;;6.33;;
46931;SDS011;32670;51.464;11.964;2023-06-22T07:49:27;8.00;;;6.27;;
46931;SDS011;32670;51.464;11.964;2023-06-22T07:51:53;12.73;;;6.80;;
46931;SDS011;32670;51.464;11.964;2023-06-22T07:54:18;9.90;;;6.23;;
46931;SDS011;32670;51.464;11.964;2023-06-22T07:56:44;8.47;;;6.20;;
46931;SDS011;32670;51.464;11.964;2023-06-22T07:59:11;7.93;;;6.23;;
46931;SDS011;32670;51.464;11.964;2023-06-22T08:01:36;7.97;;;6.27;;
46931;SDS011;32670;51.464;11.964;2023-06-22T08:04:02;9.37;;;6.50;;
46931;SDS011;32670;51.464;11.964;2023-06-22T08:06:29;8.63;;;6.17;;
46931;SDS011;32670;51.464;11.964;2023-06-22T08:08:55;10.80;;;6.23;;
46931;SDS011;32670;51.464;11.964;2023-06-22T08:11:21;9.80;;;6.17;;
46931;SDS011;32670;51.464;11.964;2023-06-22T08:13:48;7.80;;;6.10;;
46931;SDS011;32670;51.464;11.964;2023-06-22T08:16:14;6.77;;;6.17;;
46931;SDS011;32670;51.464;11.964;2023-06-22T08:18:39;7.20;;;6.27;;
46931;SDS011;32670;51.464;11.964;2023-06-22T08:21:05;6.63;;;5.97;;
46931;SDS011;32670;51.464;11.964;2023-06-22T08:23:30;7.17;;;6.23;;
46931;SDS011;32670;51.464;11.964;2023-06-22T08:25:56;7.63;;;6.37;;
46931;SDS011;32670;51.464;11.964;2023-06-22T08:28:22;7.30;;;5.80;;
46931;SDS011;32670;51.464;11.964;2023-06-22T08:30:47;8.47;;;6.10;;
46931;SDS011;32670;51.464;11.964;2023-06-22T08:33:12;6.90;;;6.20;;
46931;SDS011;32670;51.464;11.964;2023-06-22T08:35:38;6.47;;;5.87;;
46931;SDS011;32670;51.464;11.964;2023-06-22T08:38:04;7.53;;;6.00;;
46931;SDS011;32670;51.464;11.964;2023-06-22T08:40:29;6.60;;;5.90;;
46931;SDS011;32670;51.464;11.964;2023-06-22T08:42:55;6.43;;;5.93;;
46931;SDS011;32670;51.464;11.964;2023-06-22T08:45:20;6.77;;;5.53;;
46931;SDS011;32670;51.464;11.964;2023-06-22T08:47:46;7.00;;;5.90;;
46931;SDS011;32670;51.464;11.964;2023-06-22T08:50:12;8.33;;;5.90;;
46931;SDS011;32670;51.464;11.964;2023-06-22T08:52:39;6.97;;;6.17;;
46931;SDS011;32670;51.464;11.964;2023-06-22T08:55:09;7.30;;;6.07;;
46931;SDS011;32670;51.464;11.964;2023-06-22T08:57:35;6.20;;;5.70;;
46931;SDS011;32670;51.464;11.964;2023-06-22T09:00:04;6.97;;;5.73;;
46931;SDS011;32670;51.464;11.964;2023-06-22T09:02:36;6.47;;;5.53;;
46931;SDS011;32670;51.464;11.964;2023-06-22T09:05:02;6.50;;;5.90;;
46931;SDS011;32670;51.464;11.964;2023-06-22T09:07:28;6.10;;;5.57;;
46931;SDS011;32670;51.464;11.964;2023-06-22T09:09:53;8.17;;;5.60;;
46931;SDS011;32670;51.464;11.964;2023-06-22T09:12:20;6.10;;;5.50;;
46931;SDS011;32670;51.464;11.964;2023-06-22T09:14:49;6.57;;;5.47;;
46931;SDS011;32670;51.464;11.964;2023-06-22T09:17:14;6.50;;;5.90;;
46931;SDS011;32670;51.464;11.964;2023-06-22T09:19:40;6.60;;;6.00;;
46931;SDS011;32670;51.464;11.964;2023-06-22T09:22:05;6.27;;;5.67;;
46931;SDS011;32670;51.464;11.964;2023-06-22T09:24:31;6.50;;;5.77;;
46931;SDS011;32670;51.464;11.964;2023-06-22T09:26:57;6.00;;;5.50;;
46931;SDS011;32670;51.464;11.964;2023-06-22T09:29:22;5.83;;;5.33;;
46931;SDS011;32670;51.464;11.964;2023-06-22T09:31:48;5.93;;;5.43;;
46931;SDS011;32670;51.464;11.964;2023-06-22T09:34:13;6.23;;;5.73;;
46931;SDS011;32670;51.464;11.964;2023-06-22T09:36:40;5.73;;;5.20;;
46931;SDS011;32670;51.464;11.964;2023-06-22T09:39:06;6.00;;;5.50;;
46931;SDS011;32670;51.464;11.964;2023-06-22T09:41:32;6.00;;;5.50;;
46931;SDS011;32670;51.464;11.964;2023-06-22T09:43:57;5.90;;;5.40;;
46931;SDS011;32670;51.464;11.964;2023-06-22T09:46:23;6.23;;;5.47;;
46931;SDS011;32670;51.464;11.964;2023-06-22T09:48:50;6.40;;;5.70;;
46931;SDS011;32670;51.464;11.964;2023-06-22T09:51:16;6.47;;;5.97;;
46931;SDS011;32670;51.464;11.964;2023-06-22T09:53:41;6.20;;;5.70;;
46931;SDS011;32670;51.464;11.964;2023-06-22T09:56:07;5.73;;;5.13;;
46931;SDS011;32670;51.464;11.964;2023-06-22T09:58:36;7.10;;;5.37;;
46931;SDS011;32670;51.464;11.964;2023-06-22T10:01:01;5.97;;;5.47;;
46931;SDS011;32670;51.464;11.964;2023-06-22T10:03:27;6.60;;;5.90;;
46931;SDS011;32670;51.464;11.964;2023-06-22T10:05:52;5.67;;;5.17;;
46931;SDS011;32670;51.464;11.964;2023-06-22T10:08:17;5.90;;;5.40;;
46931;SDS011;32670;51.464;11.964;2023-06-22T10:10:43;5.83;;;5.33;;
46931;SDS011;32670;51.464;11.964;2023-06-22T10:13:09;5.90;;;5.40;;
46931;SDS011;32670;51.464;11.964;2023-06-22T10:15:35;6.00;;;5.50;;
46931;SDS011;32670;51.464;11.964;2023-06-22T10:18:02;5.43;;;5.03;;
46931;SDS011;32670;51.464;11.964;2023-06-22T10:20:27;5.77;;;5.30;;
46931;SDS011;32670;51.464;11.964;2023-06-22T10:22:53;6.20;;;5.70;;
46931;SDS011;32670;51.464;11.964;2023-06-22T10:25:19;5.87;;;5.37;;
46931;SDS011;32670;51.464;11.964;2023-06-22T10:27:44;5.60;;;5.10;;
46931;SDS011;32670;51.464;11.964;2023-06-22T10:30:10;5.40;;;4.90;;
46931;SDS011;32670;51.464;11.964;2023-06-22T10:32:40;6.00;;;5.50;;
46931;SDS011;32670;51.464;11.964;2023-06-22T10:35:08;5.60;;;5.10;;
46931;SDS011;32670;51.464;11.964;2023-06-22T10:37:35;5.97;;;5.47;;
46931;SDS011;32670;51.464;11.964;2023-06-22T10:40:01;5.83;;;5.43;;
46931;SDS011;32670;51.464;11.964;2023-06-22T10:42:28;5.37;;;4.97;;
46931;SDS011;32670;51.464;11.964;2023-06-22T10:44:54;6.03;;;5.53;;
46931;SDS011;32670;51.464;11.964;2023-06-22T10:47:19;5.83;;;5.23;;
46931;SDS011;32670;51.464;11.964;2023-06-22T10:49:44;5.47;;;4.97;;
46931;SDS011;32670;51.464;11.964;2023-06-22T10:52:10;5.80;;;5.30;;
46931;SDS011;32670;51.464;11.964;2023-06-22T10:54:36;6.20;;;5.70;;
46931;SDS011;32670;51.464;11.964;2023-06-22T10:57:02;5.97;;;5.10;;
46931;SDS011;32670;51.464;11.964;2023-06-22T10:59:28;5.63;;;5.13;;
46931;SDS011;32670;51.464;11.964;2023-06-22T11:01:57;5.87;;;5.37;;
46931;SDS011;32670;51.464;11.964;2023-06-22T11:04:23;5.27;;;4.77;;
46931;SDS011;32670;51.464;11.964;2023-06-22T11:06:49;5.53;;;5.03;;
46931;SDS011;32670;51.464;11.964;2023-06-22T11:09:15;5.57;;;5.07;;
46931;SDS011;32670;51.464;11.964;2023-06-22T11:11:46;5.30;;;4.83;;
46931;SDS011;32670;51.464;11.964;2023-06-22T11:14:12;5.63;;;5.13;;
46931;SDS011;32670;51.464;11.964;2023-06-22T11:16:38;5.90;;;5.30;;
46931;SDS011;32670;51.464;11.964;2023-06-22T11:19:04;5.70;;;5.20;;
46931;SDS011;32670;51.464;11.964;2023-06-22T11:21:30;5.40;;;5.00;;
46931;SDS011;32670;51.464;11.964;2023-06-22T11:23:56;6.90;;;6.30;;
46931;SDS011;32670;51.464;11.964;2023-06-22T11:26:22;5.77;;;5.23;;
46931;SDS011;32670;51.464;11.964;2023-06-22T11:28:47;5.93;;;5.43;;
46931;SDS011;32670;51.464;11.964;2023-06-22T11:31:13;5.77;;;5.37;;
46931;SDS011;32670;51.464;11.964;2023-06-22T11:33:39;5.57;;;5.17;;
46931;SDS011;32670;51.464;11.964;2023-06-22T11:36:04;5.70;;;5.23;;
46931;SDS011;32670;51.464;11.964;2023-06-22T11:38:30;6.50;;;6.00;;
46931;SDS011;32670;51.464;11.964;2023-06-22T11:40:57;5.87;;;5.27;;
46931;SDS011;32670;51.464;11.964;2023-06-22T11:43:23;5.73;;;5.33;;
46931;SDS011;32670;51.464;11.964;2023-06-22T11:45:48;5.63;;;5.13;;
46931;SDS011;32670;51.464;11.964;2023-06-22T11:48:14;6.17;;;5.67;;
46931;SDS011;32670;51.464;11.964;2023-06-22T11:50:39;5.93;;;5.53;;
46931;SDS011;32670;51.464;11.964;2023-06-22T11:53:05;6.07;;;5.57;;
46931;SDS011;32670;51.464;11.964;2023-06-22T11:55:30;5.70;;;5.30;;
46931;SDS011;32670;51.464;11.964;2023-06-22T11:57:56;6.23;;;5.63;;
46931;SDS011;32670;51.464;11.964;2023-06-22T12:00:25;7.17;;;6.57;;
46931;SDS011;32670;51.464;11.964;2023-06-22T12:02:50;6.83;;;6.33;;
46931;SDS011;32670;51.464;11.964;2023-06-22T12:05:16;6.67;;;6.17;;
46931;SDS011;32670;51.464;11.964;2023-06-22T12:07:43;6.33;;;5.83;;
46931;SDS011;32670;51.464;11.964;2023-06-22T12:10:09;6.87;;;6.27;;
46931;SDS011;32670;51.464;11.964;2023-06-22T12:12:34;6.40;;;5.90;;
46931;SDS011;32670;51.464;11.964;2023-06-22T12:15:00;6.47;;;5.97;;
46931;SDS011;32670;51.464;11.964;2023-06-22T12:17:28;6.43;;;5.83;;
46931;SDS011;32670;51.464;11.964;2023-06-22T12:19:54;5.70;;;5.30;;
46931;SDS011;32670;51.464;11.964;2023-06-22T12:22:20;6.87;;;6.27;;
46931;SDS011;32670;51.464;11.964;2023-06-22T12:24:45;6.50;;;6.00;;
46931;SDS011;32670;51.464;11.964;2023-06-22T12:27:11;6.67;;;6.07;;
46931;SDS011;32670;51.464;11.964;2023-06-22T12:29:36;7.13;;;6.53;;
46931;SDS011;32670;51.464;11.964;2023-06-22T12:32:02;7.47;;;6.77;;
46931;SDS011;32670;51.464;11.964;2023-06-22T12:34:28;7.57;;;6.77;;
46931;SDS011;32670;51.464;11.964;2023-06-22T12:36:53;6.90;;;6.27;;
46931;SDS011;32670;51.464;11.964;2023-06-22T12:39:19;6.80;;;6.20;;
46931;SDS011;32670;51.464;11.964;2023-06-22T12:41:45;6.40;;;5.90;;
46931;SDS011;32670;51.464;11.964;2023-06-22T12:44:10;7.30;;;6.40;;
46931;SDS011;32670;51.464;11.964;2023-06-22T12:46:36;8.33;;;7.63;;
46931;SDS011;32670;51.464;11.964;2023-06-22T12:49:03;7.63;;;7.03;;
46931;SDS011;32670;51.464;11.964;2023-06-22T12:51:29;6.97;;;6.47;;
46931;SDS011;32670;51.464;11.964;2023-06-22T12:53:55;7.20;;;6.60;;
46931;SDS011;32670;51.464;11.964;2023-06-22T12:56:20;7.47;;;6.87;;
46931;SDS011;32670;51.464;11.964;2023-06-22T12:58:46;7.90;;;7.20;;
46931;SDS011;32670;51.464;11.964;2023-06-22T13:01:11;7.80;;;7.10;;
46931;SDS011;32670;51.464;11.964;2023-06-22T13:03:37;7.90;;;7.20;;
46931;SDS011;32670;51.464;11.964;2023-06-22T13:06:02;7.70;;;7.10;;
46931;SDS011;32670;51.464;11.964;2023-06-22T13:08:28;7.53;;;6.93;;
46931;SDS011;32670;51.464;11.964;2023-06-22T13:10:54;7.07;;;6.53;;
46931;SDS011;32670;51.464;11.964;2023-06-22T13:13:21;7.50;;;6.90;;
46931;SDS011;32670;51.464;11.964;2023-06-22T13:15:49;7.97;;;7.27;;
46931;SDS011;32670;51.464;11.964;2023-06-22T13:18:15;7.40;;;6.80;;
46931;SDS011;32670;51.464;11.964;2023-06-22T13:20:40;7.83;;;7.13;;
46931;SDS011;32670;51.464;11.964;2023-06-22T13:23:06;7.63;;;7.03;;
46931;SDS011;32670;51.464;11.964;2023-06-22T13:25:31;7.30;;;6.60;;
46931;SDS011;32670;51.464;11.964;2023-06-22T13:27:57;7.90;;;7.20;;
46931;SDS011;32670;51.464;11.964;2023-06-22T13:30:22;7.80;;;6.97;;
46931;SDS011;32670;51.464;11.964;2023-06-22T13:32:48;8.13;;;7.43;;
46931;SDS011;32670;51.464;11.964;2023-06-22T13:35:13;7.90;;;7.20;;
46931;SDS011;32670;51.464;11.964;2023-06-22T13:37:39;7.63;;;7.03;;
46931;SDS011;32670;51.464;11.964;2023-06-22T13:40:05;8.20;;;7.50;;
46931;SDS011;32670;51.464;11.964;2023-06-22T13:42:32;7.80;;;7.13;;
46931;SDS011;32670;51.464;11.964;2023-06-22T13:44:58;7.60;;;7.00;;
46931;SDS011;32670;51.464;11.964;2023-06-22T13:47:23;6.97;;;6.43;;
46931;SDS011;32670;51.464;11.964;2023-06-22T13:49:49;7.33;;;6.70;;
46931;SDS011;32670;51.464;11.964;2023-06-22T13:52:14;7.53;;;6.93;;
46931;SDS011;32670;51.464;11.964;2023-06-22T13:54:40;7.53;;;6.93;;
46931;SDS011;32670;51.464;11.964;2023-06-22T13:57:05;7.00;;;6.50;;
46931;SDS011;32670;51.464;11.964;2023-06-22T13:59:31;7.00;;;6.40;;
46931;SDS011;32670;51.464;11.964;2023-06-22T14:01:56;7.40;;;6.80;;
46931;SDS011;32670;51.464;11.964;2023-06-22T14:04:25;7.57;;;6.97;;
46931;SDS011;32670;51.464;11.964;2023-06-22T14:06:50;7.50;;;6.90;;
46931;SDS011;32670;51.464;11.964;2023-06-22T14:09:16;7.43;;;6.77;;
46931;SDS011;32670;51.464;11.964;2023-06-22T14:11:41;7.57;;;6.97;;
46931;SDS011;32670;51.464;11.964;2023-06-22T14:14:07;8.20;;;7.40;;
46931;SDS011;32670;51.464;11.964;2023-06-22T14:16:32;7.57;;;7.03;;
46931;SDS011;32670;51.464;11.964;2023-06-22T14:18:58;7.27;;;6.77;;
46931;SDS011;32670;51.464;11.964;2023-06-22T14:21:23;6.90;;;6.40;;
46931;SDS011;32670;51.464;11.964;2023-06-22T14:23:50;7.37;;;6.77;;
46931;SDS011;32670;51.464;11.964;2023-06-22T14:26:15;7.93;;;7.23;;
46931;SDS011;32670;51.464;11.964;2023-06-22T14:28:42;7.77;;;7.07;;
46931;SDS011;32670;51.464;11.964;2023-06-22T14:31:17;7.70;;;7.00;;